sensor_id;sensor_type;location;lat;lon;timestamp;temperature;humidity
4651;DHT22;2338;49.602;8.722;2023-06-14T00:01:10;16.60;49.80
4651;DHT22;2338;49.602;8.722;2023-06-14T00:03:57;16.70;50.10
4651;DHT22;2338;49.602;8.722;2023-06-14T00:06:44;16.80;51.40
4651;DHT22;2338;49.602;8.722;2023-06-14T00:09:30;16.90;51.00
4651;DHT22;2338;49.602;8.722;2023-06-14T00:12:15;16.90;51.00
4651;DHT22;2338;49.602;8.722;2023-06-14T00:15:03;16.90;50.00
4651;DHT22;2338;49.602;8.722;2023-06-14T00:17:49;16.90;50.10
4651;DHT22;2338;49.602;8.722;2023-06-14T00:20:35;16.90;50.70
4651;DHT22;2338;49.602;8.722;2023-06-14T00:23:20;16.80;48.00
4651;DHT22;2338;49.602;8.722;2023-06-14T00:26:06;16.80;49.30
4651;DHT22;2338;49.602;8.722;2023-06-14T00:28:52;16.80;49.90
4651;DHT22;2338;49.602;8.722;2023-06-14T00:31:39;16.80;49.90
4651;DHT22;2338;49.602;8.722;2023-06-14T00:34:24;16.70;49.80
4651;DHT22;2338;49.602;8.722;2023-06-14T00:37:10;16.60;49.80
4651;DHT22;2338;49.602;8.722;2023-06-14T00:39:55;16.50;49.60
4651;DHT22;2338;49.602;8.722;2023-06-14T00:42:41;16.60;50.10
4651;DHT22;2338;49.602;8.722;2023-06-14T00:45:26;16.50;48.90
4651;DHT22;2338;49.602;8.722;2023-06-14T00:48:13;16.60;50.40
4651;DHT22;2338;49.602;8.722;2023-06-14T00:51:00;16.70;49.80
4651;DHT22;2338;49.602;8.722;2023-06-14T00:53:47;16.70;48.80
4651;DHT22;2338;49.602;8.722;2023-06-14T00:56:35;16.70;49.80
4651;DHT22;2338;49.602;8.722;2023-06-14T00:59:20;16.70;50.50
4651;DHT22;2338;49.602;8.722;2023-06-14T01:02:06;16.70;51.90
4651;DHT22;2338;49.602;8.722;2023-06-14T01:04:53;16.60;52.00
4651;DHT22;2338;49.602;8.722;2023-06-14T01:07:48;16.50;50.10
4651;DHT22;2338;49.602;8.722;2023-06-14T01:10:44;16.50;51.00
4651;DHT22;2338;49.602;8.722;2023-06-14T01:13:36;16.50;51.50
4651;DHT22;2338;49.602;8.722;2023-06-14T01:16:23;16.50;53.00
4651;DHT22;2338;49.602;8.722;2023-06-14T01:19:10;16.40;51.60
4651;DHT22;2338;49.602;8.722;2023-06-14T01:22:01;16.30;50.60
4651;DHT22;2338;49.602;8.722;2023-06-14T01:24:47;16.40;52.90
4651;DHT22;2338;49.602;8.722;2023-06-14T01:27:33;16.30;54.80
4651;DHT22;2338;49.602;8.722;2023-06-14T01:30:21;16.20;53.30
4651;DHT22;2338;49.602;8.722;2023-06-14T01:33:10;16.20;54.60
4651;DHT22;2338;49.602;8.722;2023-06-14T01:35:56;16.20;55.30
4651;DHT22;2338;49.602;8.722;2023-06-14T01:38:43;16.10;54.50
4651;DHT22;2338;49.602;8.722;2023-06-14T01:41:30;16.00;55.00
4651;DHT22;2338;49.602;8.722;2023-06-14T01:44:17;16.00;56.50
4651;DHT22;2338;49.602;8.722;2023-06-14T01:47:04;16.00;56.50
4651;DHT22;2338;49.602;8.722;2023-06-14T01:49:50;15.90;55.90
4651;DHT22;2338;49.602;8.722;2023-06-14T01:52:36;15.90;56.60
4651;DHT22;2338;49.602;8.722;2023-06-14T01:55:22;15.80;58.20
4651;DHT22;2338;49.602;8.722;2023-06-14T01:58:10;15.90;57.10
4651;DHT22;2338;49.602;8.722;2023-06-14T02:00:56;15.90;55.60
4651;DHT22;2338;49.602;8.722;2023-06-14T02:03:42;15.80;57.00
4651;DHT22;2338;49.602;8.722;2023-06-14T02:06:28;15.80;55.50
4651;DHT22;2338;49.602;8.722;2023-06-14T02:09:14;15.80;55.50
4651;DHT22;2338;49.602;8.722;2023-06-14T02:12:00;15.80;54.80
4651;DHT22;2338;49.602;8.722;2023-06-14T02:14:47;15.90;56.20
4651;DHT22;2338;49.602;8.722;2023-06-14T02:17:33;15.90;56.50
4651;DHT22;2338;49.602;8.722;2023-06-14T02:20:18;15.90;55.10
4651;DHT22;2338;49.602;8.722;2023-06-14T02:23:04;16.00;55.40
4651;DHT22;2338;49.602;8.722;2023-06-14T02:25:52;16.00;53.80
4651;DHT22;2338;49.602;8.722;2023-06-14T02:28:37;15.80;53.60
4651;DHT22;2338;49.602;8.722;2023-06-14T02:31:24;15.80;53.40
4651;DHT22;2338;49.602;8.722;2023-06-14T02:34:11;15.80;54.90
4651;DHT22;2338;49.602;8.722;2023-06-14T02:36:56;15.80;54.40
4651;DHT22;2338;49.602;8.722;2023-06-14T02:39:42;15.70;55.20
4651;DHT22;2338;49.602;8.722;2023-06-14T02:42:27;15.50;54.40
4651;DHT22;2338;49.602;8.722;2023-06-14T02:45:13;15.50;56.30
4651;DHT22;2338;49.602;8.722;2023-06-14T02:48:00;15.40;57.80
4651;DHT22;2338;49.602;8.722;2023-06-14T02:50:45;15.50;55.90
4651;DHT22;2338;49.602;8.722;2023-06-14T02:53:31;15.50;56.70
4651;DHT22;2338;49.602;8.722;2023-06-14T02:56:17;15.50;56.10
4651;DHT22;2338;49.602;8.722;2023-06-14T02:59:03;15.50;57.40
4651;DHT22;2338;49.602;8.722;2023-06-14T03:01:49;15.40;56.90
4651;DHT22;2338;49.602;8.722;2023-06-14T03:04:36;15.40;56.80
4651;DHT22;2338;49.602;8.722;2023-06-14T03:07:22;15.30;57.30
4651;DHT22;2338;49.602;8.722;2023-06-14T03:10:09;15.40;56.30
4651;DHT22;2338;49.602;8.722;2023-06-14T03:12:57;15.20;57.30
4651;DHT22;2338;49.602;8.722;2023-06-14T03:15:42;15.20;58.90
4651;DHT22;2338;49.602;8.722;2023-06-14T03:18:29;15.30;57.50
4651;DHT22;2338;49.602;8.722;2023-06-14T03:21:15;15.40;58.00
4651;DHT22;2338;49.602;8.722;2023-06-14T03:24:01;15.40;57.40
4651;DHT22;2338;49.602;8.722;2023-06-14T03:26:47;15.50;56.80
4651;DHT22;2338;49.602;8.722;2023-06-14T03:29:33;15.40;55.60
4651;DHT22;2338;49.602;8.722;2023-06-14T03:32:18;15.60;56.20
4651;DHT22;2338;49.602;8.722;2023-06-14T03:35:05;15.60;53.20
4651;DHT22;2338;49.602;8.722;2023-06-14T03:37:52;15.80;52.60
4651;DHT22;2338;49.602;8.722;2023-06-14T03:40:37;16.00;49.00
4651;DHT22;2338;49.602;8.722;2023-06-14T03:43:23;16.20;46.60
4651;DHT22;2338;49.602;8.722;2023-06-14T03:46:09;16.50;44.20
4651;DHT22;2338;49.602;8.722;2023-06-14T03:48:54;16.70;43.00
4651;DHT22;2338;49.602;8.722;2023-06-14T03:51:40;16.80;41.80
4651;DHT22;2338;49.602;8.722;2023-06-14T03:54:27;17.00;40.40
4651;DHT22;2338;49.602;8.722;2023-06-14T03:57:13;17.10;40.90
4651;DHT22;2338;49.602;8.722;2023-06-14T03:59:58;17.20;40.50
4651;DHT22;2338;49.602;8.722;2023-06-14T04:02:44;17.30;40.10
4651;DHT22;2338;49.602;8.722;2023-06-14T04:05:30;17.30;40.30
4651;DHT22;2338;49.602;8.722;2023-06-14T04:08:16;17.40;39.40
4651;DHT22;2338;49.602;8.722;2023-06-14T04:11:05;17.40;39.00
4651;DHT22;2338;49.602;8.722;2023-06-14T04:13:50;17.40;40.50
4651;DHT22;2338;49.602;8.722;2023-06-14T04:16:37;17.40;40.20
4651;DHT22;2338;49.602;8.722;2023-06-14T04:19:23;17.40;40.10
4651;DHT22;2338;49.602;8.722;2023-06-14T04:22:09;17.30;39.70
4651;DHT22;2338;49.602;8.722;2023-06-14T04:24:54;17.30;40.00
4651;DHT22;2338;49.602;8.722;2023-06-14T04:27:41;17.40;40.10
4651;DHT22;2338;49.602;8.722;2023-06-14T04:30:27;17.50;40.60
4651;DHT22;2338;49.602;8.722;2023-06-14T04:33:15;17.50;40.10
4651;DHT22;2338;49.602;8.722;2023-06-14T04:36:01;17.60;40.00
4651;DHT22;2338;49.602;8.722;2023-06-14T04:38:47;17.60;39.20
4651;DHT22;2338;49.602;8.722;2023-06-14T04:41:33;17.80;38.60
4651;DHT22;2338;49.602;8.722;2023-06-14T04:44:20;17.80;37.60
4651;DHT22;2338;49.602;8.722;2023-06-14T04:47:08;17.90;37.60
4651;DHT22;2338;49.602;8.722;2023-06-14T04:49:53;18.00;37.50
4651;DHT22;2338;49.602;8.722;2023-06-14T04:52:39;18.00;37.40
4651;DHT22;2338;49.602;8.722;2023-06-14T04:55:25;18.10;37.50
4651;DHT22;2338;49.602;8.722;2023-06-14T04:58:11;18.30;36.20
4651;DHT22;2338;49.602;8.722;2023-06-14T05:00:58;18.30;37.10
4651;DHT22;2338;49.602;8.722;2023-06-14T05:03:44;18.40;37.90
4651;DHT22;2338;49.602;8.722;2023-06-14T05:06:33;18.30;37.70
4651;DHT22;2338;49.602;8.722;2023-06-14T05:09:18;18.40;36.70
4651;DHT22;2338;49.602;8.722;2023-06-14T05:12:05;18.50;36.70
4651;DHT22;2338;49.602;8.722;2023-06-14T05:14:52;18.50;36.90
4651;DHT22;2338;49.602;8.722;2023-06-14T05:17:38;18.50;36.10
4651;DHT22;2338;49.602;8.722;2023-06-14T05:20:24;18.60;36.60
4651;DHT22;2338;49.602;8.722;2023-06-14T05:23:10;18.70;36.20
4651;DHT22;2338;49.602;8.722;2023-06-14T05:25:59;18.70;37.00
4651;DHT22;2338;49.602;8.722;2023-06-14T05:28:46;18.80;36.00
4651;DHT22;2338;49.602;8.722;2023-06-14T05:31:32;18.90;35.70
4651;DHT22;2338;49.602;8.722;2023-06-14T05:34:19;19.00;34.70
4651;DHT22;2338;49.602;8.722;2023-06-14T05:37:04;19.00;35.30
4651;DHT22;2338;49.602;8.722;2023-06-14T05:39:50;19.00;35.30
4651;DHT22;2338;49.602;8.722;2023-06-14T05:42:36;19.00;35.30
4651;DHT22;2338;49.602;8.722;2023-06-14T05:45:21;19.10;35.50
4651;DHT22;2338;49.602;8.722;2023-06-14T05:48:06;19.10;34.90
4651;DHT22;2338;49.602;8.722;2023-06-14T05:50:53;19.20;34.20
4651;DHT22;2338;49.602;8.722;2023-06-14T05:53:39;19.20;34.00
4651;DHT22;2338;49.602;8.722;2023-06-14T05:56:25;19.20;33.50
4651;DHT22;2338;49.602;8.722;2023-06-14T05:59:10;19.30;33.70
4651;DHT22;2338;49.602;8.722;2023-06-14T06:01:56;19.30;33.30
4651;DHT22;2338;49.602;8.722;2023-06-14T06:04:41;19.40;33.70
4651;DHT22;2338;49.602;8.722;2023-06-14T06:07:28;19.50;33.30
4651;DHT22;2338;49.602;8.722;2023-06-14T06:10:14;19.50;33.00
4651;DHT22;2338;49.602;8.722;2023-06-14T06:12:59;19.60;34.20
4651;DHT22;2338;49.602;8.722;2023-06-14T06:15:45;19.60;33.20
4651;DHT22;2338;49.602;8.722;2023-06-14T06:18:30;19.80;33.40
4651;DHT22;2338;49.602;8.722;2023-06-14T06:21:16;19.90;32.80
4651;DHT22;2338;49.602;8.722;2023-06-14T06:24:05;19.90;32.40
4651;DHT22;2338;49.602;8.722;2023-06-14T06:26:50;19.90;31.10
4651;DHT22;2338;49.602;8.722;2023-06-14T06:29:35;20.00;32.20
4651;DHT22;2338;49.602;8.722;2023-06-14T06:32:21;20.10;31.30
4651;DHT22;2338;49.602;8.722;2023-06-14T06:35:07;20.20;30.60
4651;DHT22;2338;49.602;8.722;2023-06-14T06:37:54;20.20;30.80
4651;DHT22;2338;49.602;8.722;2023-06-14T06:40:41;20.30;29.50
4651;DHT22;2338;49.602;8.722;2023-06-14T06:43:27;20.40;29.80
4651;DHT22;2338;49.602;8.722;2023-06-14T06:46:12;20.40;29.60
4651;DHT22;2338;49.602;8.722;2023-06-14T06:48:58;20.50;28.40
4651;DHT22;2338;49.602;8.722;2023-06-14T06:51:59;20.60;29.00
4651;DHT22;2338;49.602;8.722;2023-06-14T06:54:45;20.60;28.20
4651;DHT22;2338;49.602;8.722;2023-06-14T06:57:32;20.60;28.60
4651;DHT22;2338;49.602;8.722;2023-06-14T07:00:18;20.70;28.10
4651;DHT22;2338;49.602;8.722;2023-06-14T07:03:04;20.70;27.90
4651;DHT22;2338;49.602;8.722;2023-06-14T07:05:49;20.70;27.00
4651;DHT22;2338;49.602;8.722;2023-06-14T07:08:35;20.80;27.60
4651;DHT22;2338;49.602;8.722;2023-06-14T07:11:22;20.80;27.30
4651;DHT22;2338;49.602;8.722;2023-06-14T07:14:09;20.80;28.10
4651;DHT22;2338;49.602;8.722;2023-06-14T07:16:55;20.90;27.60
4651;DHT22;2338;49.602;8.722;2023-06-14T07:19:40;21.00;27.80
4651;DHT22;2338;49.602;8.722;2023-06-14T07:22:26;21.10;28.70
4651;DHT22;2338;49.602;8.722;2023-06-14T07:25:12;21.10;27.30
4651;DHT22;2338;49.602;8.722;2023-06-14T07:27:58;21.20;26.80
4651;DHT22;2338;49.602;8.722;2023-06-14T07:30:45;21.20;26.90
4651;DHT22;2338;49.602;8.722;2023-06-14T07:33:30;21.30;26.60
4651;DHT22;2338;49.602;8.722;2023-06-14T07:36:16;21.30;27.20
4651;DHT22;2338;49.602;8.722;2023-06-14T07:39:02;21.40;26.20
4651;DHT22;2338;49.602;8.722;2023-06-14T07:41:48;21.50;25.20
4651;DHT22;2338;49.602;8.722;2023-06-14T07:44:34;21.50;26.20
4651;DHT22;2338;49.602;8.722;2023-06-14T07:47:21;21.60;26.50
4651;DHT22;2338;49.602;8.722;2023-06-14T07:50:07;21.70;24.80
4651;DHT22;2338;49.602;8.722;2023-06-14T07:52:53;21.70;24.40
4651;DHT22;2338;49.602;8.722;2023-06-14T07:55:38;21.70;24.20
4651;DHT22;2338;49.602;8.722;2023-06-14T07:58:24;21.70;26.40
4651;DHT22;2338;49.602;8.722;2023-06-14T08:01:09;21.70;25.70
4651;DHT22;2338;49.602;8.722;2023-06-14T08:03:56;21.80;24.80
4651;DHT22;2338;49.602;8.722;2023-06-14T08:06:42;21.80;25.00
4651;DHT22;2338;49.602;8.722;2023-06-14T08:09:28;21.90;24.80
4651;DHT22;2338;49.602;8.722;2023-06-14T08:12:14;21.90;24.70
4651;DHT22;2338;49.602;8.722;2023-06-14T08:15:00;22.00;26.40
4651;DHT22;2338;49.602;8.722;2023-06-14T08:17:46;22.00;26.10
4651;DHT22;2338;49.602;8.722;2023-06-14T08:20:32;22.10;25.70
4651;DHT22;2338;49.602;8.722;2023-06-14T08:23:19;22.20;24.80
4651;DHT22;2338;49.602;8.722;2023-06-14T08:26:05;22.30;26.40
4651;DHT22;2338;49.602;8.722;2023-06-14T08:28:50;22.40;25.60
4651;DHT22;2338;49.602;8.722;2023-06-14T08:31:36;22.40;26.00
4651;DHT22;2338;49.602;8.722;2023-06-14T08:34:21;22.50;24.30
4651;DHT22;2338;49.602;8.722;2023-06-14T08:37:09;22.50;25.60
4651;DHT22;2338;49.602;8.722;2023-06-14T08:39:54;22.60;24.10
4651;DHT22;2338;49.602;8.722;2023-06-14T08:42:40;22.60;23.50
4651;DHT22;2338;49.602;8.722;2023-06-14T08:45:26;22.60;24.10
4651;DHT22;2338;49.602;8.722;2023-06-14T08:48:12;22.70;23.20
4651;DHT22;2338;49.602;8.722;2023-06-14T08:51:01;22.70;22.30
4651;DHT22;2338;49.602;8.722;2023-06-14T08:53:52;22.70;22.10
4651;DHT22;2338;49.602;8.722;2023-06-14T08:56:41;22.80;21.80
4651;DHT22;2338;49.602;8.722;2023-06-14T08:59:28;22.70;22.50
4651;DHT22;2338;49.602;8.722;2023-06-14T09:02:15;22.80;21.30
4651;DHT22;2338;49.602;8.722;2023-06-14T09:05:02;22.80;20.10
4651;DHT22;2338;49.602;8.722;2023-06-14T09:07:47;22.90;19.50
4651;DHT22;2338;49.602;8.722;2023-06-14T09:10:35;22.90;19.60
4651;DHT22;2338;49.602;8.722;2023-06-14T09:13:21;22.80;20.60
4651;DHT22;2338;49.602;8.722;2023-06-14T09:16:07;22.90;21.70
4651;DHT22;2338;49.602;8.722;2023-06-14T09:18:54;23.00;18.80
4651;DHT22;2338;49.602;8.722;2023-06-14T09:21:40;23.10;20.00
4651;DHT22;2338;49.602;8.722;2023-06-14T09:24:26;23.20;18.20
4651;DHT22;2338;49.602;8.722;2023-06-14T09:27:16;23.20;17.60
4651;DHT22;2338;49.602;8.722;2023-06-14T09:30:02;23.20;19.20
4651;DHT22;2338;49.602;8.722;2023-06-14T09:32:48;23.20;17.60
4651;DHT22;2338;49.602;8.722;2023-06-14T09:35:35;23.10;17.50
4651;DHT22;2338;49.602;8.722;2023-06-14T09:38:20;23.20;18.50
4651;DHT22;2338;49.602;8.722;2023-06-14T09:41:06;23.20;18.10
4651;DHT22;2338;49.602;8.722;2023-06-14T09:43:53;23.30;17.70
4651;DHT22;2338;49.602;8.722;2023-06-14T09:46:41;23.40;19.00
4651;DHT22;2338;49.602;8.722;2023-06-14T09:49:26;23.50;19.30
4651;DHT22;2338;49.602;8.722;2023-06-14T09:52:14;23.60;17.90
4651;DHT22;2338;49.602;8.722;2023-06-14T09:55:01;23.60;17.90
4651;DHT22;2338;49.602;8.722;2023-06-14T09:57:53;23.60;16.90
4651;DHT22;2338;49.602;8.722;2023-06-14T10:00:41;23.50;17.80
4651;DHT22;2338;49.602;8.722;2023-06-14T10:03:28;23.30;16.80
4651;DHT22;2338;49.602;8.722;2023-06-14T10:06:15;23.20;15.50
4651;DHT22;2338;49.602;8.722;2023-06-14T10:09:01;23.10;15.90
4651;DHT22;2338;49.602;8.722;2023-06-14T10:11:49;23.20;16.50
4651;DHT22;2338;49.602;8.722;2023-06-14T10:14:36;23.30;17.20
4651;DHT22;2338;49.602;8.722;2023-06-14T10:17:30;23.50;17.80
4651;DHT22;2338;49.602;8.722;2023-06-14T10:20:23;23.80;18.80
4651;DHT22;2338;49.602;8.722;2023-06-14T10:23:15;24.00;19.10
4651;DHT22;2338;49.602;8.722;2023-06-14T10:26:02;24.20;16.80
4651;DHT22;2338;49.602;8.722;2023-06-14T10:28:57;24.20;18.40
4651;DHT22;2338;49.602;8.722;2023-06-14T10:31:43;24.30;16.80
4651;DHT22;2338;49.602;8.722;2023-06-14T10:34:31;24.20;17.00
4651;DHT22;2338;49.602;8.722;2023-06-14T10:37:16;24.20;17.90
4651;DHT22;2338;49.602;8.722;2023-06-14T10:40:03;24.30;18.50
4651;DHT22;2338;49.602;8.722;2023-06-14T10:42:51;24.30;17.30
4651;DHT22;2338;49.602;8.722;2023-06-14T10:45:37;24.20;18.40
4651;DHT22;2338;49.602;8.722;2023-06-14T10:48:42;24.20;18.40
4651;DHT22;2338;49.602;8.722;2023-06-14T10:51:30;24.30;18.20
4651;DHT22;2338;49.602;8.722;2023-06-14T10:54:29;24.50;17.80
4651;DHT22;2338;49.602;8.722;2023-06-14T10:57:15;24.70;18.80
4651;DHT22;2338;49.602;8.722;2023-06-14T11:00:02;24.80;18.00
4651;DHT22;2338;49.602;8.722;2023-06-14T11:03:31;24.90;15.60
4651;DHT22;2338;49.602;8.722;2023-06-14T11:06:22;24.80;15.00
4651;DHT22;2338;49.602;8.722;2023-06-14T11:09:48;24.50;15.70
4651;DHT22;2338;49.602;8.722;2023-06-14T11:12:38;24.50;16.00
4651;DHT22;2338;49.602;8.722;2023-06-14T11:15:28;24.50;16.90
4651;DHT22;2338;49.602;8.722;2023-06-14T11:18:15;24.30;16.90
4651;DHT22;2338;49.602;8.722;2023-06-14T11:21:02;24.00;17.50
4651;DHT22;2338;49.602;8.722;2023-06-14T11:23:50;24.00;17.60
4651;DHT22;2338;49.602;8.722;2023-06-14T11:26:39;23.90;17.80
4651;DHT22;2338;49.602;8.722;2023-06-14T11:29:25;23.80;16.40
4651;DHT22;2338;49.602;8.722;2023-06-14T11:32:11;23.60;17.00
4651;DHT22;2338;49.602;8.722;2023-06-14T11:34:57;23.50;18.40
4651;DHT22;2338;49.602;8.722;2023-06-14T11:37:43;23.70;17.30
4651;DHT22;2338;49.602;8.722;2023-06-14T11:40:29;24.00;15.90
4651;DHT22;2338;49.602;8.722;2023-06-14T11:43:16;24.10;17.90
4651;DHT22;2338;49.602;8.722;2023-06-14T11:46:02;24.30;17.50
4651;DHT22;2338;49.602;8.722;2023-06-14T11:48:47;24.50;15.10
4651;DHT22;2338;49.602;8.722;2023-06-14T11:51:33;24.60;14.80
4651;DHT22;2338;49.602;8.722;2023-06-14T11:54:19;24.60;15.00
4651;DHT22;2338;49.602;8.722;2023-06-14T11:57:06;24.50;14.30
4651;DHT22;2338;49.602;8.722;2023-06-14T11:59:55;24.40;13.80
4651;DHT22;2338;49.602;8.722;2023-06-14T12:02:40;24.30;16.00
4651;DHT22;2338;49.602;8.722;2023-06-14T12:05:27;24.50;14.80
4651;DHT22;2338;49.602;8.722;2023-06-14T12:08:12;24.80;14.00
4651;DHT22;2338;49.602;8.722;2023-06-14T12:11:03;25.10;13.80
4651;DHT22;2338;49.602;8.722;2023-06-14T12:13:49;25.30;13.50
4651;DHT22;2338;49.602;8.722;2023-06-14T12:16:38;25.50;13.40
4651;DHT22;2338;49.602;8.722;2023-06-14T12:19:26;25.50;14.00
4651;DHT22;2338;49.602;8.722;2023-06-14T12:22:12;25.80;12.80
4651;DHT22;2338;49.602;8.722;2023-06-14T12:24:57;25.90;14.00
4651;DHT22;2338;49.602;8.722;2023-06-14T12:27:43;26.00;12.30
4651;DHT22;2338;49.602;8.722;2023-06-14T12:30:28;26.10;13.40
4651;DHT22;2338;49.602;8.722;2023-06-14T12:33:15;26.10;13.30
4651;DHT22;2338;49.602;8.722;2023-06-14T12:36:03;25.90;11.90
4651;DHT22;2338;49.602;8.722;2023-06-14T12:38:49;25.60;13.20
4651;DHT22;2338;49.602;8.722;2023-06-14T12:41:37;25.30;14.20
4651;DHT22;2338;49.602;8.722;2023-06-14T12:44:25;25.00;14.70
4651;DHT22;2338;49.602;8.722;2023-06-14T12:47:11;24.90;12.90
4651;DHT22;2338;49.602;8.722;2023-06-14T12:49:58;24.70;14.10
4651;DHT22;2338;49.602;8.722;2023-06-14T12:52:44;24.70;13.70
4651;DHT22;2338;49.602;8.722;2023-06-14T12:55:29;24.90;14.90
4651;DHT22;2338;49.602;8.722;2023-06-14T12:58:15;25.10;13.60
4651;DHT22;2338;49.602;8.722;2023-06-14T13:01:01;25.40;14.00
4651;DHT22;2338;49.602;8.722;2023-06-14T13:03:47;25.70;12.40
4651;DHT22;2338;49.602;8.722;2023-06-14T13:06:35;25.80;13.20
4651;DHT22;2338;49.602;8.722;2023-06-14T13:09:20;25.80;14.10
4651;DHT22;2338;49.602;8.722;2023-06-14T13:12:07;26.00;14.90
4651;DHT22;2338;49.602;8.722;2023-06-14T13:14:53;26.30;13.20
4651;DHT22;2338;49.602;8.722;2023-06-14T13:17:38;26.60;13.70
4651;DHT22;2338;49.602;8.722;2023-06-14T13:20:24;26.80;11.90
4651;DHT22;2338;49.602;8.722;2023-06-14T13:23:11;26.60;11.00
4651;DHT22;2338;49.602;8.722;2023-06-14T13:25:57;26.30;12.90
4651;DHT22;2338;49.602;8.722;2023-06-14T13:28:42;25.90;12.30
4651;DHT22;2338;49.602;8.722;2023-06-14T13:31:28;25.50;12.00
4651;DHT22;2338;49.602;8.722;2023-06-14T13:34:14;25.20;13.70
4651;DHT22;2338;49.602;8.722;2023-06-14T13:36:59;25.00;13.60
4651;DHT22;2338;49.602;8.722;2023-06-14T13:39:46;24.80;14.10
4651;DHT22;2338;49.602;8.722;2023-06-14T13:42:32;24.80;14.00
4651;DHT22;2338;49.602;8.722;2023-06-14T13:45:17;25.30;13.30
4651;DHT22;2338;49.602;8.722;2023-06-14T13:48:03;25.60;12.80
4651;DHT22;2338;49.602;8.722;2023-06-14T13:50:49;25.70;12.60
4651;DHT22;2338;49.602;8.722;2023-06-14T13:53:35;25.80;12.10
4651;DHT22;2338;49.602;8.722;2023-06-14T13:56:22;25.70;13.70
4651;DHT22;2338;49.602;8.722;2023-06-14T13:59:08;25.70;12.80
4651;DHT22;2338;49.602;8.722;2023-06-14T14:01:55;25.70;12.20
4651;DHT22;2338;49.602;8.722;2023-06-14T14:04:41;25.50;12.80
4651;DHT22;2338;49.602;8.722;2023-06-14T14:07:26;25.30;13.10
4651;DHT22;2338;49.602;8.722;2023-06-14T14:10:13;25.10;13.40
4651;DHT22;2338;49.602;8.722;2023-06-14T14:13:00;25.10;14.00
4651;DHT22;2338;49.602;8.722;2023-06-14T14:15:45;25.40;14.40
4651;DHT22;2338;49.602;8.722;2023-06-14T14:18:31;25.70;13.90
4651;DHT22;2338;49.602;8.722;2023-06-14T14:21:17;26.10;12.30
4651;DHT22;2338;49.602;8.722;2023-06-14T14:24:02;26.30;12.40
4651;DHT22;2338;49.602;8.722;2023-06-14T14:26:48;26.60;12.10
4651;DHT22;2338;49.602;8.722;2023-06-14T14:29:35;26.90;10.70
4651;DHT22;2338;49.602;8.722;2023-06-14T14:32:21;27.00;12.20
4651;DHT22;2338;49.602;8.722;2023-06-14T14:35:07;27.10;12.70
4651;DHT22;2338;49.602;8.722;2023-06-14T14:37:53;27.20;10.70
4651;DHT22;2338;49.602;8.722;2023-06-14T14:40:39;27.30;10.70
4651;DHT22;2338;49.602;8.722;2023-06-14T14:43:24;27.30;10.90
4651;DHT22;2338;49.602;8.722;2023-06-14T14:46:12;27.00;9.60
4651;DHT22;2338;49.602;8.722;2023-06-14T14:48:58;26.80;9.80
4651;DHT22;2338;49.602;8.722;2023-06-14T14:51:44;26.80;10.00
4651;DHT22;2338;49.602;8.722;2023-06-14T14:54:29;26.80;9.90
4651;DHT22;2338;49.602;8.722;2023-06-14T14:57:15;26.80;10.70
4651;DHT22;2338;49.602;8.722;2023-06-14T15:00:00;26.80;10.60
4651;DHT22;2338;49.602;8.722;2023-06-14T15:02:47;26.80;10.10
4651;DHT22;2338;49.602;8.722;2023-06-14T15:05:33;26.60;10.10
4651;DHT22;2338;49.602;8.722;2023-06-14T15:08:19;26.50;10.30
4651;DHT22;2338;49.602;8.722;2023-06-14T15:11:05;26.50;10.50
4651;DHT22;2338;49.602;8.722;2023-06-14T15:13:50;26.50;11.40
4651;DHT22;2338;49.602;8.722;2023-06-14T15:16:36;26.70;11.80
4651;DHT22;2338;49.602;8.722;2023-06-14T15:19:23;26.90;10.80
4651;DHT22;2338;49.602;8.722;2023-06-14T15:22:08;27.10;9.90
4651;DHT22;2338;49.602;8.722;2023-06-14T15:24:54;27.20;11.60
4651;DHT22;2338;49.602;8.722;2023-06-14T15:27:39;27.20;10.00
4651;DHT22;2338;49.602;8.722;2023-06-14T15:30:25;27.00;9.30
4651;DHT22;2338;49.602;8.722;2023-06-14T15:33:10;26.70;9.60
4651;DHT22;2338;49.602;8.722;2023-06-14T15:35:57;26.40;11.20
4651;DHT22;2338;49.602;8.722;2023-06-14T15:38:43;26.20;10.90
4651;DHT22;2338;49.602;8.722;2023-06-14T15:41:28;26.20;9.80
4651;DHT22;2338;49.602;8.722;2023-06-14T15:44:13;26.30;10.80
4651;DHT22;2338;49.602;8.722;2023-06-14T15:46:59;26.50;12.60
4651;DHT22;2338;49.602;8.722;2023-06-14T15:49:44;26.70;10.60
4651;DHT22;2338;49.602;8.722;2023-06-14T15:52:31;26.80;9.70
4651;DHT22;2338;49.602;8.722;2023-06-14T15:55:17;26.90;10.00
4651;DHT22;2338;49.602;8.722;2023-06-14T15:58:02;27.00;10.00
4651;DHT22;2338;49.602;8.722;2023-06-14T16:00:48;27.10;10.10
4651;DHT22;2338;49.602;8.722;2023-06-14T16:03:34;27.20;10.70
4651;DHT22;2338;49.602;8.722;2023-06-14T16:06:19;27.20;9.70
4651;DHT22;2338;49.602;8.722;2023-06-14T16:09:06;27.20;8.40
4651;DHT22;2338;49.602;8.722;2023-06-14T16:11:52;27.30;8.00
4651;DHT22;2338;49.602;8.722;2023-06-14T16:14:39;27.20;8.40
4651;DHT22;2338;49.602;8.722;2023-06-14T16:17:24;27.30;8.40
4651;DHT22;2338;49.602;8.722;2023-06-14T16:20:10;27.30;10.10
4651;DHT22;2338;49.602;8.722;2023-06-14T16:22:55;27.30;9.60
4651;DHT22;2338;49.602;8.722;2023-06-14T16:25:42;27.30;8.40
4651;DHT22;2338;49.602;8.722;2023-06-14T16:28:30;27.20;8.40
4651;DHT22;2338;49.602;8.722;2023-06-14T16:31:15;27.10;9.80
4651;DHT22;2338;49.602;8.722;2023-06-14T16:34:02;27.10;8.70
4651;DHT22;2338;49.602;8.722;2023-06-14T16:36:52;27.00;8.50
4651;DHT22;2338;49.602;8.722;2023-06-14T16:39:37;27.10;8.30
4651;DHT22;2338;49.602;8.722;2023-06-14T16:42:24;27.10;9.70
4651;DHT22;2338;49.602;8.722;2023-06-14T16:45:10;27.10;8.30
4651;DHT22;2338;49.602;8.722;2023-06-14T16:47:55;27.00;8.30
4651;DHT22;2338;49.602;8.722;2023-06-14T16:50:41;26.80;8.30
4651;DHT22;2338;49.602;8.722;2023-06-14T16:53:27;26.60;8.50
4651;DHT22;2338;49.602;8.722;2023-06-14T16:56:12;26.50;9.10
4651;DHT22;2338;49.602;8.722;2023-06-14T16:58:59;26.40;8.70
4651;DHT22;2338;49.602;8.722;2023-06-14T17:01:45;26.30;9.40
4651;DHT22;2338;49.602;8.722;2023-06-14T17:04:30;26.20;9.20
4651;DHT22;2338;49.602;8.722;2023-06-14T17:07:16;26.10;9.00
4651;DHT22;2338;49.602;8.722;2023-06-14T17:10:02;25.90;10.00
4651;DHT22;2338;49.602;8.722;2023-06-14T17:12:47;25.90;10.30
4651;DHT22;2338;49.602;8.722;2023-06-14T17:15:34;25.80;9.90
4651;DHT22;2338;49.602;8.722;2023-06-14T17:18:20;25.70;10.00
4651;DHT22;2338;49.602;8.722;2023-06-14T17:21:05;25.60;10.00
4651;DHT22;2338;49.602;8.722;2023-06-14T17:23:50;25.50;9.80
4651;DHT22;2338;49.602;8.722;2023-06-14T17:26:36;25.40;10.10
4651;DHT22;2338;49.602;8.722;2023-06-14T17:29:21;25.20;10.60
4651;DHT22;2338;49.602;8.722;2023-06-14T17:32:09;25.10;11.20
4651;DHT22;2338;49.602;8.722;2023-06-14T17:34:54;25.10;11.00
4651;DHT22;2338;49.602;8.722;2023-06-14T17:37:40;25.00;11.30
4651;DHT22;2338;49.602;8.722;2023-06-14T17:40:25;24.90;11.90
4651;DHT22;2338;49.602;8.722;2023-06-14T17:43:11;24.80;12.20
4651;DHT22;2338;49.602;8.722;2023-06-14T17:45:56;24.80;12.00
4651;DHT22;2338;49.602;8.722;2023-06-14T17:48:44;24.70;11.40
4651;DHT22;2338;49.602;8.722;2023-06-14T17:51:29;24.70;11.60
4651;DHT22;2338;49.602;8.722;2023-06-14T17:54:15;24.60;11.10
4651;DHT22;2338;49.602;8.722;2023-06-14T17:57:00;24.60;10.90
4651;DHT22;2338;49.602;8.722;2023-06-14T17:59:46;24.50;11.20
4651;DHT22;2338;49.602;8.722;2023-06-14T18:02:32;24.50;11.60
4651;DHT22;2338;49.602;8.722;2023-06-14T18:05:18;24.40;13.00
4651;DHT22;2338;49.602;8.722;2023-06-14T18:08:04;24.30;14.00